Time;durP1;ratioP1;P1;durP2;ratioP2;P2;SDS_P1;SDS_P2;PMS_P1;PMS_P2;Temp;Humidity;BMP_temperature;BMP_pressure;BME280_temperature;BME280_humidity;BME280_pressure;Samples;Min_cycle;Max_cycle;Signal;HPM_P1;HPM_P2
2022/04/10 00:01:08;;;;;;;2.93;0.97;;;;;;;2.07;70.33;100727.81;6249644;22;20019;-70
2022/04/10 00:03:33;;;;;;;5.75;1.00;;;;;;;2.06;70.51;100725.31;6252378;22;20008;-71
2022/04/10 00:05:58;;;;;;;0.63;0.50;;;;;;;1.98;70.21;100722.78;6250904;22;20008;-75
2022/04/10 00:08:24;;;;;;;2.70;1.08;;;;;;;1.94;70.09;100727.72;6277867;22;20036;-71
2022/04/10 00:10:50;;;;;;;3.60;1.38;;;;;;;1.98;70.24;100722.78;6225272;22;20444;-74
2022/04/10 00:13:15;;;;;;;1.92;1.10;;;;;;;1.92;70.59;100722.53;6250379;22;20016;-73
2022/04/10 00:15:41;;;;;;;2.22;1.02;;;;;;;1.90;70.29;100731.91;6250934;22;20034;-73
2022/04/10 00:18:06;;;;;;;3.15;1.38;;;;;;;1.74;71.61;100708.78;6277744;22;20012;-74
2022/04/10 00:20:39;;;;;;;1.88;0.90;;;;;;;1.67;71.02;100705.25;6279674;22;20051;-74
2022/04/10 00:23:09;;;;;;;2.75;0.98;;;;;;;1.82;71.36;100724.78;6280067;22;20026;-73
2022/04/10 00:25:34;;;;;;;3.05;1.23;;;;;;;1.67;70.91;100713.31;6227273;22;20008;-73
2022/04/10 00:28:00;;;;;;;2.47;1.35;;;;;;;1.73;70.92;100731.38;6250155;22;20004;-74
2022/04/10 00:30:27;;;;;;;4.78;1.77;;;;;;;1.59;71.29;100729.66;6277339;22;20062;-73
2022/04/10 00:32:52;;;;;;;6.70;1.70;;;;;;;1.55;72.17;100735.44;6280629;22;19996;-75
2022/04/10 00:35:18;;;;;;;2.40;1.30;;;;;;;1.46;71.78;100730.41;6250930;22;20060;-73
2022/04/10 00:37:43;;;;;;;2.53;1.38;;;;;;;1.37;72.74;100727.88;6250837;22;20007;-75
2022/04/10 00:40:10;;;;;;;4.95;1.30;;;;;;;1.29;72.86;100727.22;6251192;22;20015;-74
2022/04/10 00:42:38;;;;;;;5.97;1.58;;;;;;;1.22;73.56;100725.28;6277878;22;20007;-74
2022/04/10 00:45:08;;;;;;;6.05;1.40;;;;;;;1.27;74.04;100727.41;6253913;22;20026;-75
2022/04/10 00:47:34;;;;;;;3.05;1.35;;;;;;;1.35;76.63;100718.34;6279909;22;20000;-72
2022/04/10 00:50:08;;;;;;;2.85;1.40;;;;;;;1.39;76.58;100725.81;6253752;22;19996;-74
2022/04/10 00:52:35;;;;;;;9.05;1.30;;;;;;;1.48;77.28;100733.75;6280663;22;20067;-73
2022/04/10 00:55:07;;;;;;;5.28;1.80;;;;;;;1.43;76.92;100720.03;6281339;22;20007;-74
2022/04/10 00:57:33;;;;;;;7.82;1.70;;;;;;;1.44;77.16;100721.69;6246456;22;20003;-74
2022/04/10 00:59:59;;;;;;;4.75;1.65;;;;;;;1.45;76.82;100724.19;6251846;22;20478;-74
2022/04/10 01:02:24;;;;;;;4.32;1.30;;;;;;;1.42;77.81;100713.81;6276459;22;20018;-74
2022/04/10 01:04:49;;;;;;;5.97;1.98;;;;;;;1.42;77.94;100719.22;6225439;22;20077;-76
2022/04/10 01:07:17;;;;;;;7.15;1.63;;;;;;;1.37;77.31;100706.34;6280090;22;20433;-74
2022/04/10 01:09:43;;;;;;;4.72;1.45;;;;;;;1.42;77.92;100716.50;6252666;22;20411;-75
2022/04/10 01:12:14;;;;;;;4.65;1.02;;;;;;;1.33;78.54;100690.72;6279136;22;20006;-74
2022/04/10 01:14:50;;;;;;;6.22;1.63;;;;;;;1.35;78.02;100696.78;6272193;22;20018;-75
2022/04/10 01:17:16;;;;;;;4.03;1.13;;;;;;;1.25;78.47;100680.97;6278022;22;20068;-74
2022/04/10 01:19:44;;;;;;;9.45;1.25;;;;;;;1.35;77.86;100697.59;6276747;22;20470;-74
2022/04/10 01:22:17;;;;;;;4.47;1.60;;;;;;;1.27;78.47;100689.69;6251428;22;20015;-74
2022/04/10 01:24:43;;;;;;;5.80;1.02;;;;;;;1.31;78.86;100695.50;6251696;22;20338;-75
2022/04/10 01:27:08;;;;;;;8.27;1.40;;;;;;;1.30;78.70;100704.59;6226049;22;20071;-73
2022/04/10 01:29:40;;;;;;;4.53;1.00;;;;;;;1.23;78.87;100707.28;6277308;22;20003;-75
2022/04/10 01:32:11;;;;;;;2.38;1.05;;;;;;;1.13;78.77;100709.50;6252306;22;20010;-75
2022/04/10 01:34:39;;;;;;;2.85;0.90;;;;;;;1.04;78.24;100696.16;6227237;22;20007;-74
2022/04/10 01:37:06;;;;;;;1.50;0.70;;;;;;;1.09;77.71;100703.66;6249119;22;20003;-75
2022/04/10 01:39:31;;;;;;;6.70;1.20;;;;;;;1.07;77.85;100694.94;6278861;22;20073;-74
2022/04/10 01:41:57;;;;;;;4.00;0.98;;;;;;;1.08;78.08;100691.22;6249651;22;20019;-74
2022/04/10 01:44:22;;;;;;;2.60;0.90;;;;;;;1.09;78.67;100687.47;6280029;22;20034;-74
2022/04/10 01:46:48;;;;;;;7.80;1.35;;;;;;;1.07;79.01;100689.56;6252103;22;20114;-74
2022/04/10 01:49:13;;;;;;;5.63;1.20;;;;;;;1.07;78.48;100678.78;6228034;22;20014;-75
2022/04/10 01:51:42;;;;;;;3.47;1.10;;;;;;;0.99;78.67;100679.78;6249210;22;20004;-76
2022/04/10 01:54:07;;;;;;;3.63;0.70;;;;;;;1.05;78.27;100680.81;6287097;22;20056;-76
2022/04/10 01:56:32;;;;;;;1.02;0.70;;;;;;;1.00;78.41;100688.69;6257046;22;20035;-75
2022/04/10 01:58:58;;;;;;;0.77;0.55;;;;;;;0.90;78.56;100674.72;6254206;22;20355;-76
2022/04/10 02:01:27;;;;;;;0.95;0.60;;;;;;;0.94;77.98;100686.78;6278427;22;20004;-74
2022/04/10 02:03:52;;;;;;;0.55;0.38;;;;;;;0.79;78.24;100666.16;6252215;22;20053;-75
2022/04/10 02:06:18;;;;;;;0.40;0.40;;;;;;;0.93;78.03;100682.41;6250740;22;20330;-74
2022/04/10 02:08:46;;;;;;;1.35;0.60;;;;;;;0.91;77.16;100679.91;6275782;22;20010;-75
2022/04/10 02:11:14;;;;;;;0.95;0.52;;;;;;;0.81;78.09;100661.41;6274102;22;20426;-75
2022/04/10 02:13:40;;;;;;;1.48;0.75;;;;;;;0.86;77.86;100683.19;6253419;22;20016;-74
2022/04/10 02:16:11;;;;;;;1.58;0.63;;;;;;;0.84;78.06;100676.34;6251877;22;20008;-74
2022/04/10 02:18:37;;;;;;;1.10;0.68;;;;;;;0.65;77.46;100653.63;6225271;22;20004;-76
2022/04/10 02:21:02;;;;;;;1.40;0.85;;;;;;;0.65;78.21;100664.38;6277937;22;20000;-76
2022/04/10 02:23:28;;;;;;;3.50;1.10;;;;;;;0.57;77.93;100667.22;6250873;22;20011;-76
2022/04/10 02:25:54;;;;;;;4.35;1.23;;;;;;;0.44;77.46;100657.16;6250252;22;20065;-75
2022/04/10 02:28:20;;;;;;;1.42;1.00;;;;;;;0.47;77.63;100676.44;6252782;22;20008;-75
2022/04/10 02:30:45;;;;;;;1.75;0.93;;;;;;;0.43;77.08;100672.47;6251097;22;20037;-74
2022/04/10 02:33:11;;;;;;;2.70;1.00;;;;;;;0.21;77.91;100635.88;6249433;22;20004;-74
2022/04/10 02:35:36;;;;;;;3.47;1.05;;;;;;;0.38;78.20;100669.56;6227410;22;20007;-75
2022/04/10 02:38:02;;;;;;;2.22;0.88;;;;;;;0.36;76.99;100671.59;6225156;22;20025;-75
2022/04/10 02:40:27;;;;;;;1.00;0.80;;;;;;;0.26;77.95;100665.69;6252215;22;20571;-76
2022/04/10 02:42:52;;;;;;;1.92;1.10;;;;;;;0.27;78.07;100667.38;6250795;22;20039;-74
2022/04/10 02:45:18;;;;;;;3.03;1.20;;;;;;;0.17;77.26;100660.44;6276041;22;20084;-75
2022/04/10 02:47:44;;;;;;;3.13;1.10;;;;;;;0.13;77.51;100652.94;6279779;22;20291;-73
2022/04/10 02:50:09;;;;;;;1.20;0.80;;;;;;;0.15;77.59;100659.78;6275223;22;20008;-75
2022/04/10 02:52:35;;;;;;;2.17;1.17;;;;;;;0.12;77.63;100657.50;6249772;22;20042;-75
2022/04/10 02:55:00;;;;;;;1.77;1.13;;;;;;;0.21;78.32;100674.34;6225396;22;20037;-77
2022/04/10 02:57:36;;;;;;;2.25;1.38;;;;;;;-0.06;77.73;100635.56;6251871;22;20007;-74
2022/04/10 03:00:11;;;;;;;1.92;0.98;;;;;;;0.15;78.12;100680.50;6251348;22;20004;-75
2022/04/10 03:02:39;;;;;;;0.95;0.85;;;;;;;-0.03;77.89;100651.31;6278043;22;20130;-74
2022/04/10 03:05:06;;;;;;;2.20;1.00;;;;;;;-0.01;78.25;100649.28;6227507;22;20004;-75
2022/04/10 03:07:32;;;;;;;3.17;1.13;;;;;;;0.02;77.44;100673.13;6275298;22;20015;-75
2022/04/10 03:09:57;;;;;;;5.18;1.20;;;;;;;-0.07;78.11;100671.56;6227930;22;20007;-76
2022/04/10 03:12:30;;;;;;;4.55;1.52;;;;;;;-0.18;78.42;100654.06;6250683;22;20125;-74
2022/04/10 03:14:56;;;;;;;1.60;1.00;;;;;;;-0.15;77.83;100658.25;6279536;22;20706;-74
2022/04/10 03:17:21;;;;;;;1.85;1.00;;;;;;;-0.01;78.35;100670.81;6282376;22;20007;-73
2022/04/10 03:19:58;;;;;;;2.35;0.93;;;;;;;-0.15;78.52;100658.25;6280149;22;20015;-74
2022/04/10 03:22:23;;;;;;;2.60;1.05;;;;;;;-0.08;77.72;100673.41;6252406;22;20003;-74
2022/04/10 03:24:49;;;;;;;2.20;1.02;;;;;;;-0.12;78.13;100679.34;6277347;22;20444;-76
2022/04/10 03:27:15;;;;;;;3.10;1.33;;;;;;;-0.14;77.99;100682.25;6252897;22;20500;-75
2022/04/10 03:29:40;;;;;;;1.85;1.15;;;;;;;-0.15;78.75;100682.44;6248675;22;20035;-71
2022/04/10 03:32:06;;;;;;;1.65;0.80;;;;;;;-0.21;78.78;100676.78;6249710;22;20008;-73
2022/04/10 03:34:31;;;;;;;2.10;1.30;;;;;;;-0.19;77.94;100677.44;6277160;22;20382;-74
2022/04/10 03:36:57;;;;;;;1.95;0.90;;;;;;;-0.30;78.61;100667.16;6278728;22;20008;-74
2022/04/10 03:39:23;;;;;;;1.67;1.00;;;;;;;-0.39;78.02;100662.94;6250684;22;20011;-74
2022/04/10 03:41:49;;;;;;;0.90;0.70;;;;;;;-0.31;78.25;100675.41;6277172;22;20000;-74
2022/04/10 03:44:14;;;;;;;1.35;1.17;;;;;;;-0.41;79.01;100678.38;6249451;22;20026;-75
2022/04/10 03:46:43;;;;;;;1.92;1.15;;;;;;;-0.49;78.48;100663.22;6231775;22;20020;-74
2022/04/10 03:49:10;;;;;;;2.13;1.30;;;;;;;-0.42;79.06;100674.06;6224013;23;20050;-75
2022/04/10 03:51:36;;;;;;;5.20;1.50;;;;;;;-0.47;79.52;100673.78;6218193;23;20090;-75
2022/04/10 03:54:02;;;;;;;2.72;0.98;;;;;;;-0.43;78.41;100677.75;6193962;23;20004;-73
2022/04/10 03:56:29;;;;;;;1.75;1.02;;;;;;;-0.43;78.50;100681.25;6197282;23;20415;-74
2022/04/10 03:58:57;;;;;;;1.42;0.93;;;;;;;-0.46;78.54;100673.59;6172201;23;20008;-73
2022/04/10 04:01:23;;;;;;;2.05;1.00;;;;;;;-0.52;79.20;100668.16;6220188;23;20055;-74
2022/04/10 04:03:48;;;;;;;3.65;1.05;;;;;;;-0.49;78.70;100671.28;6220724;23;20011;-74
2022/04/10 04:06:14;;;;;;;1.90;1.05;;;;;;;-0.55;79.38;100664.78;6220040;23;20008;-74
2022/04/10 04:08:40;;;;;;;6.88;1.17;;;;;;;-0.55;79.31;100667.47;6218105;23;20000;-75
2022/04/10 04:11:06;;;;;;;1.60;1.13;;;;;;;-0.59;79.36;100668.88;6219944;23;20091;-74
2022/04/10 04:13:33;;;;;;;1.13;0.90;;;;;;;-0.65;79.23;100666.94;6218825;23;20004;-73
2022/04/10 04:15:58;;;;;;;1.15;0.68;;;;;;;-0.74;79.22;100654.63;6218768;23;20095;-74
2022/04/10 04:18:24;;;;;;;6.50;1.17;;;;;;;-0.68;79.04;100664.63;6220520;23;20008;-75
2022/04/10 04:20:49;;;;;;;3.03;1.20;;;;;;;-0.67;79.69;100660.94;6249977;23;20419;-74
2022/04/10 04:23:17;;;;;;;2.42;1.20;;;;;;;-0.67;79.23;100671.66;6217034;23;20035;-75
2022/04/10 04:25:42;;;;;;;1.67;0.68;;;;;;;-0.74;79.68;100660.00;6222059;23;20015;-75
2022/04/10 04:28:08;;;;;;;2.63;1.17;;;;;;;-0.72;79.81;100666.00;6247768;23;20075;-74
2022/04/10 04:30:33;;;;;;;1.58;1.00;;;;;;;-0.82;79.48;100657.41;6223074;23;20015;-74
2022/04/10 04:33:00;;;;;;;1.80;0.90;;;;;;;-0.78;80.12;100672.13;6247640;23;20000;-75
2022/04/10 04:35:25;;;;;;;1.63;1.10;;;;;;;-0.88;80.22;100661.66;6199613;23;20066;-75
2022/04/10 04:37:51;;;;;;;4.88;1.40;;;;;;;-0.85;80.53;100673.88;6249705;23;20000;-76
2022/04/10 04:40:16;;;;;;;3.67;1.30;;;;;;;-0.89;80.57;100663.50;6221452;23;20062;-75
2022/04/10 04:42:42;;;;;;;1.55;1.17;;;;;;;-0.91;80.58;100662.03;6223699;23;20004;-74
2022/04/10 04:45:09;;;;;;;1.95;1.17;;;;;;;-0.90;80.13;100669.91;6217844;22;20015;-74
2022/04/10 04:47:35;;;;;;;3.33;1.25;;;;;;;-0.94;80.53;100660.53;6227735;22;20007;-76
2022/04/10 04:50:00;;;;;;;2.70;1.08;;;;;;;-0.90;79.66;100671.75;6278382;22;20449;-74
2022/04/10 04:52:26;;;;;;;1.38;1.13;;;;;;;-0.96;80.13;100667.94;6259695;22;20461;-74
2022/04/10 04:54:51;;;;;;;2.97;1.65;;;;;;;-1.00;80.29;100661.28;6239281;22;19995;-75
2022/04/10 04:57:16;;;;;;;2.40;1.15;;;;;;;-1.01;80.78;100669.53;6237345;22;20007;-74
2022/04/10 04:59:42;;;;;;;1.73;1.13;;;;;;;-1.01;80.36;100670.34;6253005;22;20095;-72
2022/04/10 05:02:08;;;;;;;2.22;1.15;;;;;;;-0.98;80.25;100675.38;6280561;22;20075;-74
2022/04/10 05:04:34;;;;;;;2.78;1.30;;;;;;;-1.04;80.29;100670.72;6251926;22;20434;-74
2022/04/10 05:06:59;;;;;;;3.17;1.20;;;;;;;-1.11;80.83;100675.16;6249971;22;20026;-74
2022/04/10 05:09:24;;;;;;;4.45;1.08;;;;;;;-1.10;81.13;100671.44;6279087;22;20007;-74
2022/04/10 05:11:50;;;;;;;1.73;1.17;;;;;;;-1.10;80.39;100661.53;6278752;22;20054;-75
2022/04/10 05:14:15;;;;;;;4.95;1.33;;;;;;;-1.08;80.89;100681.00;6278268;22;20012;-74
2022/04/10 05:16:41;;;;;;;2.00;1.23;;;;;;;-1.10;81.29;100676.81;6249365;22;20007;-74
2022/04/10 05:19:08;;;;;;;1.80;1.17;;;;;;;-1.08;81.28;100685.50;6252438;22;20015;-75
2022/04/10 05:21:34;;;;;;;1.52;1.10;;;;;;;-1.06;81.52;100678.13;6248662;22;20011;-74
2022/04/10 05:23:59;;;;;;;2.40;1.17;;;;;;;-1.04;80.46;100684.13;6253963;22;20008;-74
2022/04/10 05:26:31;;;;;;;1.67;1.17;;;;;;;-1.07;80.74;100677.31;6277469;22;20358;-76
2022/04/10 05:28:56;;;;;;;3.75;1.45;;;;;;;-1.09;80.68;100678.50;6253275;22;20446;-76
2022/04/10 05:31:24;;;;;;;2.15;1.10;;;;;;;-1.17;81.03;100667.84;6230197;22;20008;-77
2022/04/10 05:33:49;;;;;;;1.67;0.95;;;;;;;-1.03;81.27;100683.13;6258205;22;20004;-76
2022/04/10 05:36:25;;;;;;;;;;;;;;;;;;;;;
2022/04/10 05:38:51;;;;;;;1.65;0.90;;;;;;;-0.94;80.93;100682.00;6249970;22;20087;-74
2022/04/10 05:41:16;;;;;;;2.45;1.60;;;;;;;-0.91;81.22;100678.97;6227435;22;20326;-75
2022/04/10 05:43:42;;;;;;;3.85;1.38;;;;;;;-0.87;80.85;100676.75;6224583;22;20335;-76
2022/04/10 05:46:18;;;;;;;1.80;1.30;;;;;;;-0.74;80.68;100681.50;6202400;22;20103;-75
2022/04/10 05:48:43;;;;;;;2.40;1.35;;;;;;;-0.80;80.57;100666.13;6254005;22;20029;-74
2022/04/10 05:51:08;;;;;;;1.00;0.82;;;;;;;-0.62;80.58;100685.34;6254545;22;20008;-74
2022/04/10 05:53:34;;;;;;;1.75;1.20;;;;;;;-0.60;80.27;100688.72;6277537;22;20008;-74
2022/04/10 05:55:59;;;;;;;3.22;1.35;;;;;;;-0.53;79.78;100688.78;6202077;22;20091;-74
2022/04/10 05:58:29;;;;;;;9.23;1.70;;;;;;;-0.47;79.96;100685.34;6253487;22;20822;-75
2022/04/10 06:00:55;;;;;;;1.27;0.98;;;;;;;-0.46;79.77;100687.03;6227326;22;20004;-74
2022/04/10 06:03:21;;;;;;;4.30;1.77;;;;;;;-0.44;80.18;100676.09;6278495;22;20027;-75
2022/04/10 06:05:47;;;;;;;3.30;1.40;;;;;;;-0.38;79.62;100675.31;6224835;22;20008;-74
2022/04/10 06:08:13;;;;;;;2.33;1.27;;;;;;;-0.24;79.54;100682.53;6252633;22;20004;-74
2022/04/10 06:10:38;;;;;;;2.05;1.10;;;;;;;-0.15;79.28;100680.56;6278112;22;20004;-74
2022/04/10 06:13:10;;;;;;;1.67;1.20;;;;;;;-0.06;79.80;100684.81;6252526;22;20019;-74
2022/04/10 06:16:06;;;;;;;;;;;;;;;;;;;;;
2022/04/10 06:18:34;;;;;;;1.25;0.80;;;;;;;0.04;78.93;100683.69;6254773;22;20083;-76
2022/04/10 06:21:10;;;;;;;;;;;;;;;;;;;;;
2022/04/10 06:23:36;;;;;;;0.95;0.88;;;;;;;0.09;78.48;100671.31;6254794;22;20071;-77
2022/04/10 06:26:01;;;;;;;2.70;1.33;;;;;;;0.33;78.57;100697.00;6252719;22;19999;-74
2022/04/10 06:28:30;;;;;;;2.25;1.55;;;;;;;0.23;78.64;100672.28;6252639;22;20086;-74
2022/04/10 06:30:56;;;;;;;2.28;1.20;;;;;;;0.42;79.51;100689.63;6252045;22;20008;-74
2022/04/10 06:33:21;;;;;;;3.88;0.98;;;;;;;0.61;78.88;100700.78;6200956;22;20637;-74
2022/04/10 06:35:47;;;;;;;1.35;1.00;;;;;;;0.60;78.53;100688.34;6251906;22;20007;-75
2022/04/10 06:38:12;;;;;;;4.28;1.30;;;;;;;0.69;78.52;100695.28;6251610;22;20039;-74
2022/04/10 06:40:38;;;;;;;1.88;1.38;;;;;;;0.80;78.67;100691.22;6226268;22;20082;-73
2022/04/10 06:43:07;;;;;;;5.70;1.63;;;;;;;0.89;78.00;100691.91;6224641;22;20292;-75
2022/04/10 06:45:33;;;;;;;2.22;1.30;;;;;;;1.08;77.33;100703.84;6279117;22;20016;-74
2022/04/10 06:48:02;;;;;;;3.80;1.80;;;;;;;1.04;78.12;100688.06;6279244;22;20012;-74
2022/04/10 06:50:28;;;;;;;2.42;1.55;;;;;;;1.21;78.10;100707.47;6226544;22;20004;-75
2022/04/10 06:52:56;;;;;;;4.50;2.10;;;;;;;1.39;77.10;100709.66;6250649;22;20339;-73
2022/04/10 06:55:21;;;;;;;5.28;1.88;;;;;;;1.49;76.86;100712.00;6252654;22;20003;-75
2022/04/10 06:57:47;;;;;;;7.20;1.80;;;;;;;1.64;76.87;100716.44;6251994;22;20014;-74
2022/04/10 07:00:13;;;;;;;4.45;2.03;;;;;;;1.66;77.03;100693.59;6279489;22;20102;-76
2022/04/10 07:02:39;;;;;;;4.05;1.88;;;;;;;1.81;77.36;100701.56;6251920;22;20034;-74
2022/04/10 07:05:09;;;;;;;4.22;2.25;;;;;;;1.95;76.19;100693.53;6251957;22;19999;-75
2022/04/10 07:07:40;;;;;;;4.35;2.03;;;;;;;2.20;76.98;100710.81;6251987;22;20064;-75
2022/04/10 07:10:06;;;;;;;4.55;2.72;;;;;;;2.37;76.37;100710.44;6279401;22;20015;-74
2022/04/10 07:12:32;;;;;;;6.07;2.38;;;;;;;2.55;75.59;100728.75;6251688;22;20000;-74
2022/04/10 07:15:04;;;;;;;3.75;2.40;;;;;;;2.74;75.73;100716.28;6228012;22;20004;-74
2022/04/10 07:17:29;;;;;;;4.40;1.80;;;;;;;2.92;75.59;100723.75;6251832;22;20012;-72
2022/04/10 07:19:55;;;;;;;6.30;2.10;;;;;;;3.05;75.34;100722.94;6261464;22;20676;-74
2022/04/10 07:25:05;;;;;;;3.83;1.67;;;;;;;3.41;74.12;100727.06;6286789;22;20038;-74
2022/04/10 07:27:33;;;;;;;2.58;1.60;;;;;;;3.54;74.48;100715.38;6261114;22;20007;-70
2022/04/10 07:29:58;;;;;;;3.33;2.05;;;;;;;3.72;73.88;100717.41;6262046;22;20326;-74
2022/04/10 07:32:24;;;;;;;6.90;2.28;;;;;;;3.74;73.62;100693.66;6278202;22;20011;-74
2022/04/10 07:34:50;;;;;;;7.35;2.08;;;;;;;3.96;73.29;100716.69;6226160;22;20011;-75
2022/04/10 07:37:15;;;;;;;4.72;2.05;;;;;;;3.97;72.94;100703.97;6226025;22;20023;-74
2022/04/10 07:39:43;;;;;;;2.97;1.60;;;;;;;4.24;72.68;100723.63;6251437;22;20304;-75
2022/04/10 07:42:10;;;;;;;4.30;1.50;;;;;;;4.21;71.99;100694.28;6225562;22;20006;-73
2022/04/10 07:44:35;;;;;;;3.13;1.50;;;;;;;4.44;72.12;100709.13;6277642;22;19995;-73
2022/04/10 07:49:48;;;;;;;2.55;1.67;;;;;;;4.86;70.75;100723.00;6254306;22;20457;-75
2022/04/10 07:52:15;;;;;;;3.13;1.95;;;;;;;5.02;70.69;100730.59;6250000;22;20007;-72
2022/04/10 07:54:40;;;;;;;7.05;2.55;;;;;;;5.17;70.26;100719.41;6278288;22;20000;-74
2022/04/10 07:57:06;;;;;;;4.55;1.80;;;;;;;5.40;70.29;100723.34;6277226;22;20014;-74
2022/04/10 07:59:31;;;;;;;9.52;1.88;;;;;;;5.58;69.36;100725.25;6248774;22;20070;-73
2022/04/10 08:01:58;;;;;;;4.40;2.47;;;;;;;5.73;68.66;100722.16;6251394;22;20012;-73
2022/04/10 08:04:28;;;;;;;4.88;1.77;;;;;;;5.98;68.86;100724.81;6225842;22;20015;-75
2022/04/10 08:06:54;;;;;;;6.68;2.50;;;;;;;6.13;67.89;100704.56;6207662;22;20004;-74
2022/04/10 08:09:20;;;;;;;6.10;2.45;;;;;;;6.30;66.94;100716.44;6254797;22;20042;-73
2022/04/10 08:11:45;;;;;;;4.43;2.17;;;;;;;6.59;66.35;100730.25;6250375;22;20008;-75
2022/04/10 08:14:11;;;;;;;7.80;2.78;;;;;;;6.97;67.23;100737.19;6251019;22;20014;-74
2022/04/10 08:16:44;;;;;;;6.50;2.53;;;;;;;7.26;65.86;100729.16;6275187;22;20003;-74
2022/04/10 08:19:21;;;;;;;5.63;1.80;;;;;;;7.40;64.89;100724.31;6278811;22;20084;-79
2022/04/10 08:21:46;;;;;;;4.10;1.88;;;;;;;7.70;63.84;100724.16;6230909;22;20006;-75
2022/04/10 08:24:12;;;;;;;7.53;2.00;;;;;;;7.91;63.43;100735.47;6254244;22;20039;-76
2022/04/10 08:26:37;;;;;;;5.05;2.33;;;;;;;8.07;62.32;100733.88;6281105;22;20042;-74
2022/04/10 08:29:03;;;;;;;5.63;2.15;;;;;;;8.29;62.54;100720.41;6277032;22;20410;-75
2022/04/10 08:31:50;;;;;;;7.95;2.10;;;;;;;8.69;62.02;100725.00;6251786;22;20080;-76
2022/04/10 08:34:21;;;;;;;3.30;1.60;;;;;;;9.04;60.81;100705.66;6272821;22;20015;-76
2022/04/10 08:37:38;;;;;;;;;;;;;;;;;;;;;
2022/04/10 08:40:26;;;;;;;4.25;2.25;;;;;;;10.43;57.87;100723.06;6276942;22;20019;-78
2022/04/10 08:43:22;;;;;;;4.03;1.80;;;;;;;11.11;55.29;100703.38;6251542;22;20011;-75
2022/04/10 08:45:50;;;;;;;6.35;2.10;;;;;;;11.92;52.79;100693.97;6237862;22;20054;-76
2022/04/10 08:48:22;;;;;;;4.28;1.73;;;;;;;12.65;51.74;100693.06;6227585;22;20082;-76
2022/04/10 08:50:48;;;;;;;4.72;1.60;;;;;;;13.19;49.72;100702.66;6255933;22;20449;-76
2022/04/10 08:53:18;;;;;;;4.40;1.52;;;;;;;13.46;48.49;100717.19;6252942;22;19999;-76
2022/04/10 08:55:52;;;;;;;3.65;2.03;;;;;;;13.34;47.74;100703.72;6229947;22;20010;-79
2022/04/10 08:58:23;;;;;;;6.28;2.00;;;;;;;13.21;46.21;100694.13;6231231;22;20091;-79
2022/04/10 09:00:49;;;;;;;3.22;1.42;;;;;;;13.72;46.28;100695.97;6278224;22;20109;-76
2022/04/10 09:03:18;;;;;;;4.82;1.27;;;;;;;13.95;43.86;100714.53;6225777;22;20082;-74
2022/04/10 09:06:03;;;;;;;5.05;1.98;;;;;;;13.75;45.76;100707.19;6277682;22;20004;-75
2022/04/10 09:08:28;;;;;;;2.30;1.30;;;;;;;16.86;42.65;100699.16;6278446;22;20015;-73
2022/04/10 09:11:00;;;;;;;3.60;1.42;;;;;;;20.41;35.81;100698.31;6250882;22;20086;-74
2022/04/10 09:13:48;;;;;;;4.47;1.42;;;;;;;21.89;32.40;100713.88;6277305;22;19995;-74
2022/04/10 09:16:29;;;;;;;7.03;1.38;;;;;;;23.82;29.24;100724.09;6249285;22;20014;-73
2022/04/10 09:19:08;;;;;;;5.05;1.58;;;;;;;24.19;28.25;100724.09;6277818;22;20553;-74
2022/04/10 09:21:44;;;;;;;3.92;1.35;;;;;;;24.18;29.17;100732.81;6278198;22;20057;-73
2022/04/10 09:24:12;;;;;;;7.40;1.60;;;;;;;24.55;27.10;100718.78;6252144;22;20008;-74
2022/04/10 09:26:56;;;;;;;4.38;1.23;;;;;;;25.05;26.78;100727.81;6223389;22;20022;-72
2022/04/10 09:29:28;;;;;;;6.55;1.65;;;;;;;25.66;24.36;100731.44;6251990;22;20003;-73
2022/04/10 09:31:54;;;;;;;6.00;1.50;;;;;;;24.73;26.01;100713.72;6226364;22;20579;-74
2022/04/10 09:34:25;;;;;;;4.97;1.40;;;;;;;25.52;24.34;100735.47;6251023;22;20003;-75
2022/04/10 09:37:04;;;;;;;4.05;1.35;;;;;;;25.61;24.32;100732.50;6248083;22;20003;-72
2022/04/10 09:39:37;;;;;;;5.70;1.05;;;;;;;25.13;24.99;100714.81;6252007;22;19996;-76
2022/04/10 09:42:16;;;;;;;;;;;;;;;;;;;;;
2022/04/10 09:44:45;;;;;;;5.53;1.35;;;;;;;23.78;25.51;100709.19;6253583;22;20126;-73
2022/04/10 09:47:11;;;;;;;3.42;1.40;;;;;;;23.84;24.94;100729.34;6227790;22;20042;-74
2022/04/10 09:49:42;;;;;;;5.70;0.85;;;;;;;23.59;24.70;100732.09;6247853;23;20039;-74
2022/04/10 09:52:15;;;;;;;5.45;1.30;;;;;;;23.50;23.93;100701.50;6248669;23;20004;-76
2022/04/10 09:54:47;;;;;;;4.90;1.50;;;;;;;23.67;23.91;100708.03;6221167;23;20004;-76
2022/04/10 09:57:41;;;;;;;;;;;;;;;;;;;;;
2022/04/10 10:00:10;;;;;;;4.10;1.70;;;;;;;22.86;23.45;100718.78;6246890;23;20083;-74
2022/04/10 10:02:37;;;;;;;7.80;1.50;;;;;;;23.09;22.90;100711.66;6190858;23;20012;-74
2022/04/10 10:05:03;;;;;;;4.75;1.60;;;;;;;22.04;24.54;100715.25;6212095;23;20073;-74
2022/04/10 10:08:07;;;;;;;;;;;;;;;;;;;;;
2022/04/10 10:10:41;;;;;;;;;;;;;;;;;;;;;
2022/04/10 10:13:07;;;;;;;5.75;1.17;;;;;;;24.60;23.30;100675.81;6243647;23;20083;-74
2022/04/10 10:15:59;;;;;;;3.25;1.13;;;;;;;24.34;22.58;100688.19;6244765;23;20019;-73
2022/04/10 10:18:27;;;;;;;3.42;1.05;;;;;;;24.97;22.81;100712.81;6218296;23;20015;-72
2022/04/10 10:21:03;;;;;;;4.85;1.45;;;;;;;23.53;23.44;100695.22;6220463;23;20011;-74
2022/04/10 10:23:36;;;;;;;4.13;1.45;;;;;;;22.40;25.22;100713.91;6245503;23;20075;-71
2022/04/10 10:26:25;;;;;;;3.10;1.10;;;;;;;21.22;26.61;100709.88;6220224;23;20064;-71
2022/04/10 10:29:33;;;;;;;2.80;1.00;;;;;;;23.33;25.13;100704.50;6242399;23;19996;-72
2022/04/10 10:32:34;;;;;;;4.15;1.00;;;;;;;26.67;21.15;100705.72;6151170;23;20005;-75
2022/04/10 10:35:02;;;;;;;2.92;0.75;;;;;;;27.00;18.60;100708.00;6132688;23;20005;-74
2022/04/10 10:37:30;;;;;;;4.18;1.23;;;;;;;27.41;18.67;100690.69;6192887;23;20015;-71
2022/04/10 10:40:03;;;;;;;4.90;1.40;;;;;;;26.37;19.40;100709.09;6241138;23;20050;-72
2022/04/10 10:42:45;;;;;;;1.50;0.85;;;;;;;27.05;19.12;100695.66;6213996;23;20006;-72
2022/04/10 10:45:30;;;;;;;2.15;0.88;;;;;;;27.62;17.77;100693.06;6245844;23;20014;-71
2022/04/10 10:48:23;;;;;;;6.55;0.80;;;;;;;26.82;17.59;100696.41;6219176;23;20038;-76
2022/04/10 10:50:50;;;;;;;2.63;1.10;;;;;;;26.55;17.96;100693.47;6242876;23;20039;-75
2022/04/10 10:53:25;;;;;;;1.58;0.80;;;;;;;27.34;17.47;100700.63;6218191;23;20035;-70
2022/04/10 10:55:54;;;;;;;4.65;1.15;;;;;;;29.03;15.88;100702.25;6244370;23;20008;-75
2022/04/10 10:58:37;;;;;;;3.92;1.25;;;;;;;29.02;16.64;100672.47;6244387;23;20003;-71
2022/04/10 11:01:26;;;;;;;3.72;1.23;;;;;;;29.96;15.53;100678.09;6243671;23;20038;-74
2022/04/10 11:04:02;;;;;;;2.10;0.80;;;;;;;31.01;14.12;100663.25;6243819;23;20490;-73
2022/04/10 11:06:49;;;;;;;3.38;1.40;;;;;;;30.41;14.93;100668.28;6245145;23;20046;-73
2022/04/10 11:09:39;;;;;;;;;;;;;;;;;;;;;
2022/04/10 11:12:13;;;;;;;5.70;1.00;;;;;;;31.36;13.85;100653.19;6242931;23;20083;-74
2022/04/10 11:14:40;;;;;;;3.30;1.13;;;;;;;31.82;13.01;100674.97;6219914;23;20003;-75
2022/04/10 11:17:42;;;;;;;;;;;;;;;;;;;;;
2022/04/10 11:20:15;;;;;;;4.80;1.00;;;;;;;30.24;13.88;100646.44;6241051;23;20087;-74
2022/04/10 11:23:03;;;;;;;4.65;0.90;;;;;;;30.32;13.94;100662.19;6244718;22;20004;-74
2022/04/10 11:25:41;;;;;;;;;;;;;;;;;;;;;
2022/04/10 11:28:12;;;;;;;2.17;0.85;;;;;;;31.20;13.50;100613.25;6246776;23;20083;-77
2022/04/10 11:30:48;;;;;;;4.78;0.88;;;;;;;31.77;13.21;100635.00;6221919;23;20008;-74
2022/04/10 11:33:17;;;;;;;1.38;0.70;;;;;;;30.49;14.46;100606.25;6245102;23;20419;-75
2022/04/10 11:36:25;;;;;;;2.33;0.70;;;;;;;31.37;13.56;100648.38;6246224;23;20379;-75
2022/04/10 11:39:08;;;;;;;2.28;0.90;;;;;;;31.73;13.36;100637.88;6243973;23;20012;-72
2022/04/10 11:41:38;;;;;;;5.38;1.10;;;;;;;31.35;13.59;100631.78;6249684;23;20003;-74
2022/04/10 11:51:12;;;;;;;2.38;0.90;;;;;;;32.82;12.48;100619.25;6304275;22;20026;-74
2022/04/10 11:53:37;;;;;;;4.70;1.38;;;;;;;33.49;11.86;100609.84;6255145;23;20050;-74
2022/04/10 11:56:04;;;;;;;1.65;0.75;;;;;;;30.60;13.47;100626.84;6262180;23;20470;-74
2022/04/10 11:58:35;;;;;;;6.40;0.90;;;;;;;30.29;13.53;100618.66;6256213;23;20019;-72
2022/04/10 12:01:01;;;;;;;2.10;0.70;;;;;;;32.08;13.67;100610.69;6222581;23;20065;-73
2022/04/10 12:03:30;;;;;;;3.03;0.80;;;;;;;33.41;12.25;100609.06;6235513;23;20182;-75
2022/04/10 12:05:57;;;;;;;1.90;0.73;;;;;;;34.02;11.62;100613.31;6241943;23;20523;-73
2022/04/10 12:08:23;;;;;;;3.95;0.70;;;;;;;34.13;10.09;100621.69;6240257;23;20034;-73